Time;durP1;ratioP1;P1;durP2;ratioP2;P2;SDS_P1;SDS_P2;PMS_P1;PMS_P2;Temp;Humidity;BMP_temperature;BMP_pressure;BME280_temperature;BME280_humidity;BME280_pressure;Samples;Min_cycle;Max_cycle;Signal;HPM_P1;HPM_P2
2021/03/24 00:00:47;;;;;;;15.27;11.23;;;;;;;6.47;82.09;101586.81;4997290;28;20052;-54
2021/03/24 00:03:14;;;;;;;23.65;12.32;;;;;;;6.58;81.62;101587.41;4987945;28;20046;-55
2021/03/24 00:05:49;;;;;;;21.48;11.45;;;;;;;6.66;81.32;101593.81;4996480;28;20038;-51
2021/03/24 00:08:17;;;;;;;21.55;11.98;;;;;;;6.63;80.71;101588.56;4992116;28;20057;-55
2021/03/24 00:10:43;;;;;;;18.88;11.65;;;;;;;6.43;82.12;101589.97;4996787;28;20046;-54
2021/03/24 00:13:11;;;;;;;17.23;11.85;;;;;;;6.69;80.79;101591.44;4994139;28;20042;-55
2021/03/24 00:15:38;;;;;;;20.35;11.80;;;;;;;6.31;82.70;101595.22;4995020;28;20576;-52
2021/03/24 00:18:06;;;;;;;22.65;12.15;;;;;;;6.66;80.76;101598.91;4994586;28;20050;-51
2021/03/24 00:20:36;;;;;;;20.80;11.95;;;;;;;6.62;80.77;101591.91;4995622;28;20052;-51
2021/03/24 00:23:03;;;;;;;16.63;11.00;;;;;;;6.62;80.71;101591.91;4994495;28;20060;-51
2021/03/24 00:25:30;;;;;;;20.85;11.90;;;;;;;6.63;80.59;101591.09;4995120;28;20046;-53
2021/03/24 00:27:57;;;;;;;20.35;11.93;;;;;;;6.46;81.66;101585.03;4995718;28;20049;-53
2021/03/24 00:30:29;;;;;;;19.63;11.85;;;;;;;6.37;81.89;101585.41;4995068;28;20057;-53
2021/03/24 00:32:56;;;;;;;18.77;11.50;;;;;;;6.15;83.22;101585.00;4993242;28;20052;-53
2021/03/24 00:35:23;;;;;;;18.55;11.90;;;;;;;6.22;82.06;101587.06;4994902;28;20117;-55
2021/03/24 00:37:50;;;;;;;18.13;11.82;;;;;;;5.97;83.53;101582.25;4995685;28;20080;-53
2021/03/24 00:40:28;;;;;;;19.17;11.63;;;;;;;6.55;81.28;101584.69;4993831;28;20054;-52
2021/03/24 00:42:55;;;;;;;19.23;11.23;;;;;;;6.51;80.77;101581.09;4993348;28;20050;-51
2021/03/24 00:45:21;;;;;;;18.13;11.32;;;;;;;6.64;80.22;101573.34;4994222;28;20880;-52
2021/03/24 00:47:48;;;;;;;20.05;11.00;;;;;;;6.60;80.12;101578.19;4995653;28;20050;-53
2021/03/24 00:50:19;;;;;;;20.75;11.20;;;;;;;6.46;80.82;101574.88;4993513;28;20050;-52
2021/03/24 00:52:46;;;;;;;18.27;11.20;;;;;;;6.55;80.69;101574.50;4996131;28;20713;-53
2021/03/24 00:55:14;;;;;;;21.27;12.13;;;;;;;6.34;81.57;101558.94;4997712;28;20053;-53
2021/03/24 00:57:41;;;;;;;19.48;11.23;;;;;;;6.46;80.95;101571.44;4993089;28;20048;-52
2021/03/24 01:00:20;;;;;;;17.02;11.82;;;;;;;6.51;80.52;101567.50;5000735;28;20054;-52
2021/03/24 01:02:47;;;;;;;19.88;11.60;;;;;;;6.54;80.17;101570.22;4999766;28;20079;-52
2021/03/24 01:05:16;;;;;;;18.70;11.32;;;;;;;6.35;81.17;101560.69;5001657;28;20041;-55
2021/03/24 01:07:45;;;;;;;19.88;12.05;;;;;;;6.37;80.84;101556.53;4999253;28;20050;-51
2021/03/24 01:10:14;;;;;;;20.20;11.57;;;;;;;6.27;80.95;101551.72;4993187;28;20061;-48
2021/03/24 01:12:41;;;;;;;21.80;12.65;;;;;;;6.32;81.68;101550.31;5002219;28;20049;-51
2021/03/24 01:15:09;;;;;;;19.45;11.65;;;;;;;6.39;81.32;101549.91;4996944;28;20054;-54
2021/03/24 01:17:35;;;;;;;20.52;12.77;;;;;;;6.41;80.77;101549.97;4995345;28;20046;-56
2021/03/24 01:20:03;;;;;;;24.70;12.65;;;;;;;6.41;81.15;101555.94;4994587;28;20132;-53
2021/03/24 01:22:33;;;;;;;22.70;12.48;;;;;;;6.26;81.53;101555.06;4995560;28;20050;-51
2021/03/24 01:25:00;;;;;;;25.50;12.20;;;;;;;6.10;82.27;101559.28;4994603;28;20124;-53
2021/03/24 01:27:26;;;;;;;23.58;13.30;;;;;;;6.15;82.03;101557.00;5001409;28;20050;-56
2021/03/24 01:29:53;;;;;;;22.70;12.90;;;;;;;6.33;81.53;101552.97;4996021;28;20050;-52
2021/03/24 01:32:20;;;;;;;21.33;12.82;;;;;;;6.19;81.56;101550.41;4994093;28;20064;-54
2021/03/24 01:34:46;;;;;;;19.40;12.27;;;;;;;6.29;81.63;101548.50;4996106;28;20061;-49
2021/03/24 01:37:14;;;;;;;22.08;13.38;;;;;;;6.12;82.07;101551.75;4993040;28;20529;-52
2021/03/24 01:39:41;;;;;;;18.88;12.20;;;;;;;5.95;82.99;101549.88;4995658;28;20053;-51
2021/03/24 01:42:08;;;;;;;22.25;12.40;;;;;;;6.21;82.41;101544.63;4993561;28;20065;-53
2021/03/24 01:45:13;;;;;;;23.17;12.85;;;;;;;6.24;81.25;101536.28;4997192;28;20056;-56
2021/03/24 01:47:42;;;;;;;22.05;12.80;;;;;;;6.44;80.49;101539.97;4955439;28;20041;-50
2021/03/24 01:50:18;;;;;;;19.67;12.50;;;;;;;6.30;80.72;101542.63;4996883;28;20145;-50
2021/03/24 01:52:44;;;;;;;21.23;12.23;;;;;;;6.27;81.25;101533.94;4999112;28;20049;-54
2021/03/24 01:55:12;;;;;;;23.58;13.05;;;;;;;6.29;81.12;101538.31;4993607;28;20054;-54
2021/03/24 01:57:41;;;;;;;24.10;12.82;;;;;;;6.13;81.69;101530.59;4994647;28;20061;-51
2021/03/24 02:00:38;;;;;;;22.52;13.48;;;;;;;6.22;81.63;101533.66;4997832;28;20054;-56
2021/03/24 02:03:05;;;;;;;22.85;13.00;;;;;;;6.30;81.13;101537.53;4991715;28;20239;-55
2021/03/24 02:05:32;;;;;;;22.50;12.20;;;;;;;6.01;82.71;101537.53;4996284;28;20618;-54
2021/03/24 02:08:04;;;;;;;22.90;13.85;;;;;;;6.31;80.97;101536.72;4997343;28;20092;-52
2021/03/24 02:10:49;;;;;;;20.60;13.55;;;;;;;6.30;80.59;101531.56;4992720;28;20456;-55
2021/03/24 02:13:30;;;;;;;22.95;13.77;;;;;;;6.27;80.87;101542.44;4997644;28;20054;-54
2021/03/24 02:16:00;;;;;;;22.10;13.95;;;;;;;6.26;81.40;101532.19;4997997;28;20046;-53
2021/03/24 02:18:32;;;;;;;24.45;13.57;;;;;;;6.31;80.97;101529.09;4982699;28;20492;-52
2021/03/24 02:21:04;;;;;;;23.25;13.13;;;;;;;6.28;80.92;101531.47;4995831;28;20057;-56
2021/03/24 02:23:39;;;;;;;23.02;14.00;;;;;;;6.33;80.51;101532.63;4994936;28;20038;-53
2021/03/24 02:26:26;;;;;;;25.20;13.90;;;;;;;6.32;80.70;101541.03;4996455;28;20077;-52
2021/03/24 02:28:55;;;;;;;20.98;13.35;;;;;;;6.30;80.92;101537.53;4995962;28;20050;-52
2021/03/24 02:31:26;;;;;;;25.70;14.75;;;;;;;6.15;81.00;101540.84;4997280;28;20046;-55
2021/03/24 02:33:55;;;;;;;23.30;13.60;;;;;;;6.34;80.61;101536.91;4995940;28;20060;-52
2021/03/24 02:36:23;;;;;;;23.05;12.75;;;;;;;6.35;80.37;101542.88;4996747;28;20867;-51
2021/03/24 02:38:55;;;;;;;22.35;13.38;;;;;;;6.32;80.51;101543.56;4998013;28;20054;-56
2021/03/24 02:41:22;;;;;;;22.13;13.80;;;;;;;6.36;80.37;101542.06;4996975;28;20054;-53
2021/03/24 02:43:50;;;;;;;24.05;14.10;;;;;;;6.30;80.42;101537.53;4998359;28;20050;-53
2021/03/24 02:46:17;;;;;;;23.73;13.40;;;;;;;6.31;80.34;101534.19;4995909;28;20054;-53
2021/03/24 02:48:45;;;;;;;20.55;12.98;;;;;;;6.33;80.11;101541.91;4998273;28;20085;-56
2021/03/24 02:51:19;;;;;;;23.58;14.60;;;;;;;6.32;80.14;101535.06;4995389;28;20559;-52
2021/03/24 02:54:05;;;;;;;22.60;13.20;;;;;;;6.36;80.03;101537.88;4996841;28;20096;-51
2021/03/24 02:56:32;;;;;;;24.02;13.50;;;;;;;6.40;80.23;101538.03;4997124;28;20056;-49
2021/03/24 02:58:59;;;;;;;21.58;12.60;;;;;;;6.37;79.85;101533.66;4997341;28;20053;-54
2021/03/24 03:01:34;;;;;;;22.83;13.43;;;;;;;6.33;80.37;101529.19;4997163;28;20049;-48
2021/03/24 03:04:10;;;;;;;18.88;13.18;;;;;;;6.23;80.15;101532.88;4995002;28;20070;-56
2021/03/24 03:06:38;;;;;;;26.95;13.13;;;;;;;6.24;80.70;101527.03;4993903;28;20120;-54
2021/03/24 03:09:11;;;;;;;21.05;13.80;;;;;;;6.36;80.16;101540.41;4996101;28;20049;-57
2021/03/24 03:11:55;;;;;;;19.75;12.23;;;;;;;6.40;80.17;101535.50;4996732;28;20061;-49
2021/03/24 03:14:59;;;;;;;20.42;12.73;;;;;;;6.39;80.12;101544.81;4994061;28;20050;-52
2021/03/24 03:17:35;;;;;;;20.73;13.40;;;;;;;6.27;80.59;101539.00;4981345;28;20061;-52
2021/03/24 03:20:08;;;;;;;19.38;12.48;;;;;;;6.01;81.97;101534.97;4994637;28;20427;-55
2021/03/24 03:22:47;;;;;;;23.85;12.55;;;;;;;6.06;81.67;101539.56;4997720;28;20045;-54
2021/03/24 03:25:19;;;;;;;20.42;12.63;;;;;;;6.18;80.89;101536.81;4992936;28;20043;-55
2021/03/24 03:27:50;;;;;;;21.70;13.10;;;;;;;6.30;80.55;101536.66;4997662;28;20050;-52
2021/03/24 03:30:20;;;;;;;20.85;12.98;;;;;;;6.37;80.08;101539.59;4993200;28;20058;-53
2021/03/24 03:32:48;;;;;;;20.95;12.73;;;;;;;6.10;81.55;101535.50;4997209;28;20507;-53
2021/03/24 03:35:24;;;;;;;21.15;12.80;;;;;;;6.27;80.54;101536.47;4992324;28;20086;-51
2021/03/24 03:37:57;;;;;;;23.60;12.75;;;;;;;6.16;81.17;101547.72;4997160;28;20070;-50
2021/03/24 03:40:25;;;;;;;24.85;13.63;;;;;;;6.40;80.34;101540.59;4996139;28;20046;-52
2021/03/24 03:42:53;;;;;;;20.15;12.95;;;;;;;6.19;81.11;101535.16;4997279;28;20072;-54
2021/03/24 03:45:21;;;;;;;20.77;13.20;;;;;;;6.35;80.05;101540.34;4995297;28;20053;-54
2021/03/24 03:47:48;;;;;;;22.15;13.60;;;;;;;6.42;79.86;101539.88;4997285;28;20061;-54
2021/03/24 03:50:19;;;;;;;20.55;13.38;;;;;;;6.33;80.26;101542.81;4994765;28;20056;-55
2021/03/24 03:53:01;;;;;;;20.13;13.07;;;;;;;6.31;80.51;101539.28;4997569;28;20062;-57
2021/03/24 03:55:44;;;;;;;20.23;12.10;;;;;;;6.02;82.11;101544.38;4993929;28;20050;-52
2021/03/24 03:58:14;;;;;;;20.95;13.00;;;;;;;6.37;80.49;101536.19;4994182;28;20138;-54
2021/03/24 04:00:50;;;;;;;22.45;13.57;;;;;;;6.06;81.25;101531.06;4996015;28;20045;-50
2021/03/24 04:03:19;;;;;;;;;;;;;;;6.10;81.26;101526.25;4993181;28;20053;-54
2021/03/24 04:06:02;;;;;;;25.17;13.55;;;;;;;6.03;81.97;101534.28;4996633;28;19948;-52
2021/03/24 04:08:32;;;;;;;21.33;13.00;;;;;;;6.36;80.31;101534.44;4993178;28;20053;-53
2021/03/24 04:11:04;;;;;;;26.38;14.52;;;;;;;6.34;80.20;101530.97;4995639;28;20046;-50
2021/03/24 04:13:35;;;;;;;26.20;13.43;;;;;;;6.08;81.80;101519.28;4996133;28;20042;-51
2021/03/24 04:16:03;;;;;;;23.20;14.52;;;;;;;6.13;81.56;101520.44;4992554;28;20651;-54
2021/03/24 04:18:50;;;;;;;20.08;13.38;;;;;;;6.37;80.86;101526.00;4996285;28;20082;-52
2021/03/24 04:21:21;;;;;;;28.17;15.77;;;;;;;6.30;80.70;101519.72;4994885;28;20038;-48
2021/03/24 04:23:57;;;;;;;24.25;13.55;;;;;;;6.29;80.52;101519.66;4996834;28;20043;-54
2021/03/24 04:26:30;;;;;;;25.88;14.73;;;;;;;5.90;82.56;101530.91;4993093;28;20519;-54
2021/03/24 04:29:01;;;;;;;22.02;13.90;;;;;;;5.92;83.42;101524.31;4993703;28;20053;-53
2021/03/24 04:31:29;;;;;;;23.95;14.18;;;;;;;6.07;82.00;101520.97;4994111;28;20049;-52
2021/03/24 04:33:56;;;;;;;24.23;14.23;;;;;;;6.15;81.42;101521.41;4992455;28;20060;-54
2021/03/24 04:36:32;;;;;;;23.52;14.20;;;;;;;6.02;82.01;101522.38;4990521;28;20046;-47
2021/03/24 04:39:06;;;;;;;23.88;15.13;;;;;;;6.13;81.79;101533.16;4994015;28;20050;-51
2021/03/24 04:41:41;;;;;;;23.50;15.45;;;;;;;6.03;82.14;101519.03;4995929;28;20053;-48
2021/03/24 04:44:20;;;;;;;24.65;15.45;;;;;;;6.19;81.85;101525.84;4995072;28;20061;-56
2021/03/24 04:46:52;;;;;;;23.95;13.73;;;;;;;6.20;81.35;101516.59;4997202;28;20053;-52
2021/03/24 04:49:25;;;;;;;23.80;15.13;;;;;;;6.16;81.94;101525.69;4992861;28;20054;-54
2021/03/24 04:51:54;;;;;;;29.85;15.35;;;;;;;5.86;83.03;101525.66;4994414;28;20420;-56
2021/03/24 04:54:33;;;;;;;27.50;15.30;;;;;;;6.06;82.37;101528.50;4995129;28;20065;-55
2021/03/24 04:57:11;;;;;;;25.00;15.13;;;;;;;5.86;83.37;101530.72;4995489;28;20381;-52
2021/03/24 04:59:46;;;;;;;28.95;16.13;;;;;;;6.12;82.09;101527.19;4992755;28;20088;-55
2021/03/24 05:02:12;;;;;;;29.27;15.73;;;;;;;5.92;82.88;101520.09;4994156;28;20042;-57
2021/03/24 05:04:42;;;;;;;25.45;15.52;;;;;;;6.03;82.93;101520.69;4996668;28;20148;-54
2021/03/24 05:07:22;;;;;;;25.75;14.95;;;;;;;6.06;82.59;101516.69;4993398;28;20077;-56
2021/03/24 05:09:48;;;;;;;26.80;15.05;;;;;;;6.05;82.84;101527.63;4994155;28;20049;-51
2021/03/24 05:12:49;;;;;;;30.30;15.40;;;;;;;5.91;83.56;101531.00;4994396;28;20058;-51
2021/03/24 05:15:21;;;;;;;29.23;15.68;;;;;;;5.70;84.43;101530.63;4994108;28;20046;-48
2021/03/24 05:17:49;;;;;;;26.20;15.93;;;;;;;6.11;83.11;101517.81;4996425;28;20563;-52
2021/03/24 05:20:35;;;;;;;30.88;16.88;;;;;;;5.70;84.10;101529.75;4994204;28;20054;-55
2021/03/24 05:23:07;;;;;;;26.35;15.45;;;;;;;6.08;82.92;101524.38;4995219;28;20050;-56
2021/03/24 05:25:46;;;;;;;28.58;14.95;;;;;;;5.71;84.82;101523.88;4993779;28;20045;-52
2021/03/24 05:28:20;;;;;;;31.58;16.95;;;;;;;5.59;85.36;101518.94;4994130;28;20046;-55
2021/03/24 05:30:53;;;;;;;32.30;17.98;;;;;;;5.92;84.43;101530.25;4996528;28;20089;-50
2021/03/24 05:33:29;;;;;;;30.52;16.90;;;;;;;6.27;82.02;101534.81;4993179;28;20042;-51
2021/03/24 05:36:05;;;;;;;30.23;17.42;;;;;;;6.02;82.49;101540.16;4993170;28;20411;-55
2021/03/24 05:38:41;;;;;;;28.33;17.63;;;;;;;6.01;83.77;101542.59;4995710;28;20057;-55
2021/03/24 05:41:29;;;;;;;32.70;17.40;;;;;;;6.15;82.72;101536.66;4993926;28;20054;-57
2021/03/24 05:44:16;;;;;;;33.67;19.13;;;;;;;6.21;82.13;101531.06;4993656;28;20042;-55
2021/03/24 05:47:04;;;;;;;36.33;19.80;;;;;;;6.20;81.78;101534.38;4995149;28;20128;-56
2021/03/24 05:49:58;;;;;;;43.20;20.00;;;;;;;6.40;81.35;101540.59;4992491;28;20124;-54
2021/03/24 05:52:35;;;;;;;35.83;18.88;;;;;;;6.41;81.38;101543.22;4992701;28;20061;-55
2021/03/24 05:55:20;;;;;;;37.08;19.38;;;;;;;6.42;81.34;101550.03;4992787;28;20061;-53
2021/03/24 05:57:55;;;;;;;34.47;19.67;;;;;;;6.41;81.16;101547.41;4994074;28;20050;-57
2021/03/24 06:00:36;;;;;;;40.15;21.42;;;;;;;6.42;81.23;101544.97;4991629;28;20412;-56
2021/03/24 06:03:08;;;;;;;34.40;19.20;;;;;;;6.44;81.52;101545.94;4992237;28;20053;-55
2021/03/24 06:05:38;;;;;;;38.33;21.67;;;;;;;6.46;81.05;101548.56;4992010;28;20077;-51
2021/03/24 06:08:14;;;;;;;39.17;22.00;;;;;;;6.33;81.33;101550.44;4998456;28;20046;-50
2021/03/24 06:11:12;;;;;;;37.17;21.45;;;;;;;6.54;80.47;101543.09;4990301;28;20050;-48
2021/03/24 06:13:55;;;;;;;39.75;21.85;;;;;;;6.48;80.76;101540.22;4996552;28;20050;-51
2021/03/24 06:16:45;;;;;;;43.83;23.20;;;;;;;6.61;80.66;101535.03;4997788;28;20064;-48
2021/03/24 06:19:22;;;;;;;43.33;23.20;;;;;;;6.70;80.42;101544.84;4995930;28;20042;-48
2021/03/24 06:22:25;;;;;;;37.88;22.60;;;;;;;6.88;79.70;101539.84;4967989;28;20515;-48
2021/03/24 06:25:22;;;;;;;38.33;21.67;;;;;;;6.81;79.59;101550.50;4979592;28;20054;-52
2021/03/24 06:28:09;;;;;;;38.40;22.05;;;;;;;6.83;80.07;101548.91;4991892;28;20752;-48
2021/03/24 06:31:06;;;;;;;44.38;23.63;;;;;;;6.73;80.54;101547.53;4994553;28;20092;-46
2021/03/24 06:33:44;;;;;;;42.40;24.02;;;;;;;6.82;80.25;101547.16;4995132;28;20038;-49
2021/03/24 06:36:35;;;;;;;38.95;23.17;;;;;;;6.98;80.40;101553.94;5000882;28;20061;-56
2021/03/24 06:39:27;;;;;;;42.20;24.35;;;;;;;6.88;80.71;101555.13;4994516;28;20042;-52
2021/03/24 06:42:47;;;;;;;42.70;24.27;;;;;;;7.12;79.38;101555.59;4994039;28;20069;-51
2021/03/24 06:46:13;;;;;;;45.28;25.75;;;;;;;7.04;80.00;101559.41;4904609;29;20056;-52
2021/03/24 06:49:13;;;;;;;49.92;25.55;;;;;;;7.39;79.06;101563.81;4837437;29;20056;-50
2021/03/24 06:52:27;;;;;;;46.60;27.10;;;;;;;6.97;80.75;101559.84;4989984;28;20134;-53
2021/03/24 06:55:25;;;;;;;49.28;28.35;;;;;;;7.02;81.74;101561.84;4991256;28;20046;-50
2021/03/24 06:58:11;;;;;;;53.65;29.85;;;;;;;7.66;78.11;101566.91;4991141;28;20829;-54
2021/03/24 07:01:08;;;;;;;51.80;27.30;;;;;;;7.63;78.57;101570.19;4991620;28;20042;-55
2021/03/24 07:03:50;;;;;;;50.40;29.10;;;;;;;7.70;78.22;101567.94;4990332;28;20054;-52
2021/03/24 07:06:42;;;;;;;53.72;29.77;;;;;;;8.04;76.57;101570.53;4992726;28;20069;-50
2021/03/24 07:09:20;;;;;;;57.28;29.77;;;;;;;7.92;77.42;101573.34;4992432;28;20045;-52
2021/03/24 07:12:16;;;;;;;55.95;31.48;;;;;;;7.62;79.09;101570.97;4988083;28;20046;-52
2021/03/24 07:14:58;;;;;;;58.13;31.55;;;;;;;8.09;76.67;101572.53;4989276;28;20057;-53
2021/03/24 07:17:37;;;;;;;57.65;32.50;;;;;;;7.90;78.31;101573.28;4988061;28;20571;-53
2021/03/24 07:20:15;;;;;;;55.47;31.70;;;;;;;8.34;74.79;101573.72;4989578;28;20058;-54
2021/03/24 07:23:01;;;;;;;52.95;32.50;;;;;;;7.89;77.78;101573.19;4990475;28;20137;-49
2021/03/24 07:26:05;;;;;;;58.05;33.78;;;;;;;8.39;74.33;101572.31;4992102;28;20913;-49
2021/03/24 07:28:54;;;;;;;61.38;35.33;;;;;;;8.30;76.12;101572.69;4997500;28;20788;-47
2021/03/24 07:31:58;;;;;;;58.55;34.17;;;;;;;8.43;74.94;101581.00;4995923;28;20153;-53
2021/03/24 07:34:36;;;;;;;63.38;35.63;;;;;;;8.44;74.09;101581.06;4996628;28;20050;-50
2021/03/24 07:37:35;;;;;;;64.65;35.22;;;;;;;8.51;73.19;101589.91;4998325;28;20054;-51
2021/03/24 07:40:24;;;;;;;68.10;37.53;;;;;;;8.64;73.82;101597.31;5001488;28;20590;-48
2021/03/24 07:43:23;;;;;;;61.58;35.78;;;;;;;8.32;74.07;101595.72;5000421;28;20054;-50
2021/03/24 07:46:28;;;;;;;63.85;36.22;;;;;;;8.44;73.28;101588.72;4999453;28;20591;-50
2021/03/24 07:49:21;;;;;;;68.57;36.17;;;;;;;8.64;73.88;101598.22;4957366;28;20049;-51
2021/03/24 07:52:01;;;;;;;69.10;37.85;;;;;;;8.63;73.92;101604.13;4997426;28;20771;-51
2021/03/24 07:54:43;;;;;;;62.35;37.28;;;;;;;8.49;73.24;101596.59;4996892;28;20133;-53
2021/03/24 07:57:54;;;;;;;69.38;39.47;;;;;;;8.61;73.67;101599.75;5001675;28;20038;-52
2021/03/24 08:00:33;;;;;;;64.32;37.75;;;;;;;8.36;74.59;101601.09;4934509;28;20074;-51
2021/03/24 08:03:13;;;;;;;69.40;39.63;;;;;;;8.20;74.72;101608.78;4999990;28;20060;-48
2021/03/24 08:05:56;;;;;;;67.97;39.75;;;;;;;8.61;73.68;101607.41;4999054;28;20092;-53
2021/03/24 08:08:46;;;;;;;71.43;39.65;;;;;;;8.76;72.58;101610.69;4993518;28;20054;-50
2021/03/24 08:11:41;;;;;;;69.43;38.80;;;;;;;8.79;72.40;101608.28;4980387;28;20046;-51
2021/03/24 08:14:18;;;;;;;68.30;39.42;;;;;;;8.71;72.57;101617.25;4994510;28;20142;-49
2021/03/24 08:17:14;;;;;;;73.85;40.28;;;;;;;8.83;72.63;101612.75;4996626;28;20046;-48
2021/03/24 08:20:16;;;;;;;69.20;40.17;;;;;;;8.93;71.77;101614.94;4994850;28;20034;-49
2021/03/24 08:22:56;;;;;;;67.28;38.42;;;;;;;8.87;71.26;101612.09;4995626;28;20046;-49
2021/03/24 08:25:37;;;;;;;67.05;40.50;;;;;;;9.18;70.33;101610.94;4993050;28;20050;-49
2021/03/24 08:28:17;;;;;;;70.97;39.50;;;;;;;9.03;70.75;101613.69;4997120;28;20052;-50
2021/03/24 08:31:22;;;;;;;69.28;40.28;;;;;;;9.23;69.61;101612.03;4996574;28;20463;-53
2021/03/24 08:34:18;;;;;;;65.50;40.17;;;;;;;9.38;69.52;101610.19;4996579;28;20042;-50
2021/03/24 08:37:05;;;;;;;69.83;38.50;;;;;;;9.18;70.61;101608.41;4996066;28;20045;-47
2021/03/24 08:40:09;;;;;;;72.10;41.28;;;;;;;9.76;68.17;101618.69;4994103;28;20053;-48
2021/03/24 08:43:11;;;;;;;70.97;40.30;;;;;;;9.78;67.72;101603.41;4997827;28;20514;-50
2021/03/24 08:45:49;;;;;;;65.82;39.17;;;;;;;10.11;66.36;101612.50;4998042;28;20487;-53
2021/03/24 08:48:48;;;;;;;67.47;38.97;;;;;;;10.08;65.97;101608.97;4992032;28;20732;-49
2021/03/24 08:51:21;;;;;;;73.35;39.67;;;;;;;10.11;67.39;101604.84;4983267;28;20045;-51
2021/03/24 08:53:56;;;;;;;70.75;39.50;;;;;;;10.40;66.94;101618.91;4992673;28;20042;-50
2021/03/24 08:56:46;;;;;;;68.13;39.35;;;;;;;10.49;66.40;101608.13;4994446;28;20140;-52
2021/03/24 08:59:33;;;;;;;72.50;41.33;;;;;;;9.97;66.42;101607.63;4998324;28;20050;-46
2021/03/24 09:02:35;;;;;;;64.57;40.85;;;;;;;10.82;63.25;101612.88;5001793;28;20060;-49
2021/03/24 09:05:13;;;;;;;68.13;40.70;;;;;;;10.61;65.29;101607.78;4919758;29;20051;-49
2021/03/24 09:08:17;;;;;;;63.35;40.33;;;;;;;10.60;64.35;101611.16;4982931;28;20044;-53
2021/03/24 09:11:00;;;;;;;63.47;39.58;;;;;;;10.82;63.20;101616.31;4995704;28;20060;-48
2021/03/24 09:13:32;;;;;;;65.18;39.10;;;;;;;10.71;62.14;101609.88;4992366;28;20050;-52
2021/03/24 09:16:20;;;;;;;64.78;39.08;;;;;;;10.74;61.88;101611.69;4997368;28;20053;-48
2021/03/24 09:19:14;;;;;;;64.28;38.83;;;;;;;10.95;61.84;101610.88;4995901;28;20050;-49
2021/03/24 09:21:52;;;;;;;66.68;38.17;;;;;;;11.05;62.80;101603.53;4944211;28;20050;-48
2021/03/24 09:24:22;;;;;;;63.95;39.97;;;;;;;11.14;60.15;101602.19;4992252;28;20046;-53
2021/03/24 09:27:16;;;;;;;63.10;38.40;;;;;;;11.19;60.35;101607.50;4995983;28;20046;-48
2021/03/24 09:30:17;;;;;;;65.72;39.15;;;;;;;11.51;56.81;101598.44;4995251;28;20042;-54
2021/03/24 09:32:56;;;;;;;62.85;37.38;;;;;;;11.50;57.27;101596.66;4995461;28;20048;-49
2021/03/24 09:35:38;;;;;;;60.90;37.67;;;;;;;11.43;56.42;101599.84;4992224;28;20065;-50
2021/03/24 09:38:17;;;;;;;65.95;37.03;;;;;;;11.36;57.41;101593.59;4994291;28;20098;-51
2021/03/24 09:40:50;;;;;;;62.53;37.17;;;;;;;11.15;59.37;101600.50;4995245;28;20060;-49
2021/03/24 09:43:29;;;;;;;67.60;38.45;;;;;;;11.46;56.87;101593.13;4991354;28;20057;-49
2021/03/24 09:46:04;;;;;;;66.95;39.45;;;;;;;11.68;58.80;101594.75;4995838;28;20057;-50
2021/03/24 09:48:48;;;;;;;65.28;39.45;;;;;;;11.63;57.21;101588.59;4984336;28;20539;-52
2021/03/24 09:51:19;;;;;;;65.57;40.13;;;;;;;11.68;57.31;101592.19;4990928;28;20050;-54
2021/03/24 09:53:49;;;;;;;64.57;38.05;;;;;;;11.54;55.74;101584.81;4993395;28;20679;-52
2021/03/24 09:56:25;;;;;;;65.93;39.38;;;;;;;11.51;57.42;101589.84;4989787;28;20121;-50
2021/03/24 09:59:34;;;;;;;63.70;37.95;;;;;;;12.07;55.26;101586.75;4989808;28;20078;-54
2021/03/24 10:02:12;;;;;;;63.97;38.40;;;;;;;11.82;55.54;101585.00;4982752;28;20086;-52
2021/03/24 10:04:47;;;;;;;64.68;39.15;;;;;;;11.71;55.98;101583.75;4997726;28;20121;-52
2021/03/24 10:07:22;;;;;;;70.13;40.90;;;;;;;11.65;55.78;101580.97;4994673;28;20042;-54
2021/03/24 10:09:58;;;;;;;68.57;39.22;;;;;;;11.54;56.50;101580.56;4999413;28;20046;-54
2021/03/24 10:12:35;;;;;;;67.90;40.90;;;;;;;11.35;58.31;101581.59;4998599;28;20050;-50
2021/03/24 10:15:36;;;;;;;65.65;38.33;;;;;;;11.71;56.68;101578.59;4997938;28;20512;-49
2021/03/24 10:18:16;;;;;;;66.85;38.40;;;;;;;11.49;55.94;101584.66;4996389;28;20056;-50
2021/03/24 10:21:15;;;;;;;62.40;37.47;;;;;;;11.27;58.55;101580.44;4998474;28;20065;-51
2021/03/24 10:23:49;;;;;;;64.68;36.55;;;;;;;11.67;58.19;101576.75;4992583;28;20049;-50
2021/03/24 10:26:24;;;;;;;62.65;37.40;;;;;;;11.87;56.22;101570.63;4994577;28;20065;-50
2021/03/24 10:29:07;;;;;;;59.83;36.22;;;;;;;11.53;56.56;101570.25;4996382;28;20061;-55
2021/03/24 10:31:53;;;;;;;70.18;42.78;;;;;;;11.73;55.88;101565.00;4998912;28;20053;-52
2021/03/24 10:34:31;;;;;;;62.35;38.03;;;;;;;11.60;56.46;101567.06;4997049;28;20076;-50
2021/03/24 10:37:11;;;;;;;61.65;37.15;;;;;;;11.51;57.34;101565.09;4996845;28;20658;-53
2021/03/24 10:40:00;;;;;;;62.65;38.20;;;;;;;11.93;56.47;101572.56;4997663;28;20056;-53
2021/03/24 10:42:40;;;;;;;61.30;37.42;;;;;;;12.05;55.09;101565.25;4970035;28;20050;-53
2021/03/24 10:45:24;;;;;;;65.07;38.72;;;;;;;12.00;55.87;101558.22;4989702;28;20057;-50
2021/03/24 10:48:16;;;;;;;66.10;39.75;;;;;;;12.12;54.62;101559.53;4996348;28;20050;-53
2021/03/24 10:50:57;;;;;;;61.10;37.43;;;;;;;12.32;53.80;101557.59;4997155;28;20112;-50
2021/03/24 10:53:29;;;;;;;60.97;38.50;;;;;;;11.95;55.53;101552.94;4994417;28;20050;-51
2021/03/24 10:56:13;;;;;;;61.90;37.65;;;;;;;12.09;55.41;101556.84;4983199;28;20590;-46
2021/03/24 10:58:53;;;;;;;65.03;39.45;;;;;;;12.09;55.32;101548.28;4995634;28;20708;-48
2021/03/24 11:01:58;;;;;;;63.50;37.78;;;;;;;11.94;55.13;101548.63;4992956;28;20053;-52
2021/03/24 11:04:46;;;;;;;62.78;37.03;;;;;;;12.28;54.43;101545.47;4944262;28;20054;-52
2021/03/24 11:07:22;;;;;;;61.47;37.00;;;;;;;12.39;53.26;101558.69;4991765;28;20038;-50
2021/03/24 11:09:57;;;;;;;62.22;36.60;;;;;;;12.19;53.79;101550.31;4995106;28;20061;-50
2021/03/24 11:12:46;;;;;;;60.85;35.53;;;;;;;13.23;52.21;101548.44;4997510;28;20054;-54
2021/03/24 11:15:20;;;;;;;59.22;37.38;;;;;;;13.42;51.24;101542.97;4995311;28;20046;-50
2021/03/24 11:18:05;;;;;;;57.50;36.63;;;;;;;14.50;47.45;101541.44;4998225;28;20137;-55
2021/03/24 11:20:43;;;;;;;59.88;36.22;;;;;;;14.10;48.49;101540.47;4995275;28;20049;-53
2021/03/24 11:23:14;;;;;;;57.50;36.10;;;;;;;14.64;46.44;101539.19;4991177;28;20101;-53
2021/03/24 11:25:50;;;;;;;57.15;36.35;;;;;;;14.89;46.36;101533.75;4997023;28;20408;-56
2021/03/24 11:28:28;;;;;;;55.00;35.70;;;;;;;15.47;46.17;101545.22;4993621;28;20109;-53
2021/03/24 11:31:14;;;;;;;58.20;37.08;;;;;;;16.12;44.67;101536.09;4996817;28;20054;-49
2021/03/24 11:33:52;;;;;;;54.05;35.78;;;;;;;17.59;40.92;101545.88;4996948;28;20095;-52
2021/03/24 11:36:25;;;;;;;54.08;36.55;;;;;;;18.47;36.98;101540.63;4993235;28;20181;-53
2021/03/24 11:39:07;;;;;;;48.10;34.85;;;;;;;19.95;35.17;101541.25;4997435;28;20421;-51
2021/03/24 11:41:37;;;;;;;57.60;37.95;;;;;;;19.35;35.85;101532.44;4994859;28;20056;-51
2021/03/24 11:44:07;;;;;;;48.42;35.50;;;;;;;18.89;38.58;101536.59;4994716;28;20049;-54
2021/03/24 11:46:42;;;;;;;47.60;35.90;;;;;;;20.44;33.41;101530.84;4996968;28;20049;-54
2021/03/24 11:49:09;;;;;;;46.38;34.05;;;;;;;20.73;33.77;101530.78;4994811;28;20069;-51
2021/03/24 11:51:57;;;;;;;49.55;36.83;;;;;;;19.81;34.15;101522.19;4997367;28;20129;-53
2021/03/24 11:54:48;;;;;;;46.67;34.35;;;;;;;21.19;31.10;101519.34;4991951;28;20443;-52
2021/03/24 11:57:25;;;;;;;43.92;34.22;;;;;;;20.88;32.76;101519.47;4994079;28;20051;-52
2021/03/24 12:00:20;;;;;;;47.72;35.20;;;;;;;21.19;31.92;101521.94;4994476;28;20054;-54
2021/03/24 12:03:07;;;;;;;48.95;36.55;;;;;;;21.84;30.61;101523.31;4996713;28;20047;-51
2021/03/24 12:05:40;;;;;;;48.35;35.17;;;;;;;21.16;32.96;101514.13;4994817;28;20129;-54
2021/03/24 12:08:22;;;;;;;47.80;36.38;;;;;;;22.52;30.44;101521.00;4994639;28;20033;-52